Entiat, Washington
Current Conditions -  °F | °C
As of 4:55 PM on Tuesday 21 Oct 2014 (Local Time) from KEAT Reporting Station
Overcast Overcast  
Wind Chill: 64°   Ceiling: 9000
Heat Index: 64°   Visibility: 10mi
Dew Point: 36°   Wind: 0mph
Humidity: 35%   Direction: NA
Pressure: 29.88"   Gusts: NA
Location:  47.68°N, 120.21°W
Report Text: KEAT 212355Z AUTO 00000KT 10SM OVC090 18/02 A2988 RMK AO2 SLP117 T01780022 10189 20117 50001
Loading
Personal Weather Stations






























Interactive Weather Map
Tropical Storm Tracking
New forecast layout! Learn more

10-Day Weather Forecast

Advertisements
Track Severe Weather on mobile